sensor_id;sensor_type;location;lat;lon;timestamp;temperature;humidity
17740;DHT22;8990;33.226;-97.150;2023-03-14T00:00:17;12.60;99.90
17740;DHT22;8990;33.226;-97.150;2023-03-14T00:02:46;12.50;99.90
17740;DHT22;8990;33.226;-97.150;2023-03-14T00:05:20;12.50;99.90
17740;DHT22;8990;33.226;-97.150;2023-03-14T00:07:48;12.40;99.90
17740;DHT22;8990;33.226;-97.150;2023-03-14T00:10:19;12.30;99.90
17740;DHT22;8990;33.226;-97.150;2023-03-14T00:12:48;12.20;99.90
17740;DHT22;8990;33.226;-97.150;2023-03-14T00:15:17;12.20;99.50
17740;DHT22;8990;33.226;-97.150;2023-03-14T00:17:46;12.10;99.20
17740;DHT22;8990;33.226;-97.150;2023-03-14T00:20:15;12.00;99.80
17740;DHT22;8990;33.226;-97.150;2023-03-14T00:22:44;12.00;99.90
17740;DHT22;8990;33.226;-97.150;2023-03-14T00:25:13;11.90;99.90
17740;DHT22;8990;33.226;-97.150;2023-03-14T00:27:44;11.90;99.90
17740;DHT22;8990;33.226;-97.150;2023-03-14T00:30:13;11.80;99.90
17740;DHT22;8990;33.226;-97.150;2023-03-14T00:32:43;11.70;99.90
17740;DHT22;8990;33.226;-97.150;2023-03-14T00:35:13;11.70;99.90
17740;DHT22;8990;33.226;-97.150;2023-03-14T00:37:42;11.60;99.90
17740;DHT22;8990;33.226;-97.150;2023-03-14T00:40:11;11.60;99.90
17740;DHT22;8990;33.226;-97.150;2023-03-14T00:42:40;11.50;99.90
17740;DHT22;8990;33.226;-97.150;2023-03-14T00:45:14;11.50;99.90
17740;DHT22;8990;33.226;-97.150;2023-03-14T00:47:43;11.50;99.90
17740;DHT22;8990;33.226;-97.150;2023-03-14T00:50:12;11.50;99.90
17740;DHT22;8990;33.226;-97.150;2023-03-14T00:52:41;11.40;99.90
17740;DHT22;8990;33.226;-97.150;2023-03-14T00:55:11;11.40;99.90
17740;DHT22;8990;33.226;-97.150;2023-03-14T00:57:40;11.40;99.90
17740;DHT22;8990;33.226;-97.150;2023-03-14T01:00:10;11.30;99.90
17740;DHT22;8990;33.226;-97.150;2023-03-14T01:02:41;11.30;99.90
17740;DHT22;8990;33.226;-97.150;2023-03-14T01:05:10;11.30;99.90
17740;DHT22;8990;33.226;-97.150;2023-03-14T01:07:39;11.20;99.90
17740;DHT22;8990;33.226;-97.150;2023-03-14T01:10:09;11.20;99.90
17740;DHT22;8990;33.226;-97.150;2023-03-14T01:12:38;11.10;99.90
17740;DHT22;8990;33.226;-97.150;2023-03-14T01:15:09;11.10;99.90
17740;DHT22;8990;33.226;-97.150;2023-03-14T01:17:38;11.10;99.90
17740;DHT22;8990;33.226;-97.150;2023-03-14T01:20:11;11.00;99.90
17740;DHT22;8990;33.226;-97.150;2023-03-14T01:22:41;11.00;99.90
17740;DHT22;8990;33.226;-97.150;2023-03-14T01:25:14;11.00;99.90
17740;DHT22;8990;33.226;-97.150;2023-03-14T01:27:45;11.00;99.90
17740;DHT22;8990;33.226;-97.150;2023-03-14T01:30:14;11.00;99.90
17740;DHT22;8990;33.226;-97.150;2023-03-14T01:32:44;11.00;99.90
17740;DHT22;8990;33.226;-97.150;2023-03-14T01:35:15;10.90;99.90
17740;DHT22;8990;33.226;-97.150;2023-03-14T01:37:44;10.80;99.90
17740;DHT22;8990;33.226;-97.150;2023-03-14T01:40:18;10.80;99.90
17740;DHT22;8990;33.226;-97.150;2023-03-14T01:42:54;10.80;99.90
17740;DHT22;8990;33.226;-97.150;2023-03-14T01:48:32;10.80;99.90
17740;DHT22;8990;33.226;-97.150;2023-03-14T01:51:08;10.80;99.90
17740;DHT22;8990;33.226;-97.150;2023-03-14T01:53:39;10.80;99.90
17740;DHT22;8990;33.226;-97.150;2023-03-14T01:56:13;10.80;99.90
17740;DHT22;8990;33.226;-97.150;2023-03-14T01:58:44;10.70;99.90
17740;DHT22;8990;33.226;-97.150;2023-03-14T02:01:15;10.70;99.90
17740;DHT22;8990;33.226;-97.150;2023-03-14T02:03:48;10.60;99.90
17740;DHT22;8990;33.226;-97.150;2023-03-14T02:06:23;10.60;99.90
17740;DHT22;8990;33.226;-97.150;2023-03-14T02:08:55;10.60;99.90
17740;DHT22;8990;33.226;-97.150;2023-03-14T02:11:29;10.60;99.90
17740;DHT22;8990;33.226;-97.150;2023-03-14T02:14:28;10.50;99.90
17740;DHT22;8990;33.226;-97.150;2023-03-14T02:17:19;10.50;99.90
17740;DHT22;8990;33.226;-97.150;2023-03-14T02:20:17;10.50;99.90
17740;DHT22;8990;33.226;-97.150;2023-03-14T02:22:56;10.50;99.90
17740;DHT22;8990;33.226;-97.150;2023-03-14T02:25:35;10.50;99.90
17740;DHT22;8990;33.226;-97.150;2023-03-14T02:28:09;10.50;99.90
17740;DHT22;8990;33.226;-97.150;2023-03-14T02:30:40;10.50;99.90
17740;DHT22;8990;33.226;-97.150;2023-03-14T02:33:12;10.40;99.90
17740;DHT22;8990;33.226;-97.150;2023-03-14T02:35:49;10.40;99.90
17740;DHT22;8990;33.226;-97.150;2023-03-14T02:38:22;10.30;99.90
17740;DHT22;8990;33.226;-97.150;2023-03-14T02:40:52;10.30;99.90
17740;DHT22;8990;33.226;-97.150;2023-03-14T02:43:24;10.30;99.90
17740;DHT22;8990;33.226;-97.150;2023-03-14T02:45:59;10.20;99.90
17740;DHT22;8990;33.226;-97.150;2023-03-14T02:48:33;10.20;99.90
17740;DHT22;8990;33.226;-97.150;2023-03-14T02:51:04;10.20;99.90
17740;DHT22;8990;33.226;-97.150;2023-03-14T02:53:34;10.10;99.90
17740;DHT22;8990;33.226;-97.150;2023-03-14T02:56:09;10.10;99.90
17740;DHT22;8990;33.226;-97.150;2023-03-14T02:58:40;10.00;99.90
17740;DHT22;8990;33.226;-97.150;2023-03-14T03:01:35;9.90;99.90
17740;DHT22;8990;33.226;-97.150;2023-03-14T03:04:05;10.00;99.90
17740;DHT22;8990;33.226;-97.150;2023-03-14T03:06:34;10.00;99.90
17740;DHT22;8990;33.226;-97.150;2023-03-14T03:09:03;10.00;99.90
17740;DHT22;8990;33.226;-97.150;2023-03-14T03:11:33;9.90;99.90
17740;DHT22;8990;33.226;-97.150;2023-03-14T03:14:06;9.90;99.90
17740;DHT22;8990;33.226;-97.150;2023-03-14T03:16:35;9.90;99.90
17740;DHT22;8990;33.226;-97.150;2023-03-14T03:19:04;9.90;99.90
17740;DHT22;8990;33.226;-97.150;2023-03-14T03:21:34;9.90;99.90
17740;DHT22;8990;33.226;-97.150;2023-03-14T03:24:04;9.90;99.90
17740;DHT22;8990;33.226;-97.150;2023-03-14T03:26:34;9.80;99.90
17740;DHT22;8990;33.226;-97.150;2023-03-14T03:29:07;9.90;99.90
17740;DHT22;8990;33.226;-97.150;2023-03-14T03:31:37;9.80;99.90
17740;DHT22;8990;33.226;-97.150;2023-03-14T03:34:06;9.90;99.90
17740;DHT22;8990;33.226;-97.150;2023-03-14T03:36:36;9.80;99.90
17740;DHT22;8990;33.226;-97.150;2023-03-14T03:39:05;9.70;99.90
17740;DHT22;8990;33.226;-97.150;2023-03-14T03:41:34;9.70;99.90
17740;DHT22;8990;33.226;-97.150;2023-03-14T03:44:03;9.70;99.90
17740;DHT22;8990;33.226;-97.150;2023-03-14T03:46:34;9.70;99.90
17740;DHT22;8990;33.226;-97.150;2023-03-14T03:49:03;9.70;99.90
17740;DHT22;8990;33.226;-97.150;2023-03-14T03:51:32;9.60;99.90
17740;DHT22;8990;33.226;-97.150;2023-03-14T03:54:01;9.60;99.90
17740;DHT22;8990;33.226;-97.150;2023-03-14T03:56:33;9.60;99.90
17740;DHT22;8990;33.226;-97.150;2023-03-14T03:59:03;9.60;99.90
17740;DHT22;8990;33.226;-97.150;2023-03-14T04:01:33;9.50;99.90
17740;DHT22;8990;33.226;-97.150;2023-03-14T04:04:06;9.40;99.90
17740;DHT22;8990;33.226;-97.150;2023-03-14T04:06:36;9.40;99.90
17740;DHT22;8990;33.226;-97.150;2023-03-14T04:09:05;9.40;99.90
17740;DHT22;8990;33.226;-97.150;2023-03-14T04:11:42;9.40;99.90
17740;DHT22;8990;33.226;-97.150;2023-03-14T04:14:31;9.40;99.90
17740;DHT22;8990;33.226;-97.150;2023-03-14T04:17:23;9.40;99.90
17740;DHT22;8990;33.226;-97.150;2023-03-14T04:19:52;9.40;99.90
17740;DHT22;8990;33.226;-97.150;2023-03-14T04:22:24;9.40;99.90
17740;DHT22;8990;33.226;-97.150;2023-03-14T04:24:54;9.40;99.90
17740;DHT22;8990;33.226;-97.150;2023-03-14T04:27:34;9.30;99.90
17740;DHT22;8990;33.226;-97.150;2023-03-14T04:30:08;9.30;99.90
17740;DHT22;8990;33.226;-97.150;2023-03-14T04:32:55;9.30;99.90
17740;DHT22;8990;33.226;-97.150;2023-03-14T04:35:25;9.30;99.90
17740;DHT22;8990;33.226;-97.150;2023-03-14T04:37:58;9.20;99.90
17740;DHT22;8990;33.226;-97.150;2023-03-14T04:40:28;9.20;99.90
17740;DHT22;8990;33.226;-97.150;2023-03-14T04:43:03;9.10;99.90
17740;DHT22;8990;33.226;-97.150;2023-03-14T04:45:32;9.20;99.90
17740;DHT22;8990;33.226;-97.150;2023-03-14T04:48:05;9.10;99.90
17740;DHT22;8990;33.226;-97.150;2023-03-14T04:50:34;9.10;99.90
17740;DHT22;8990;33.226;-97.150;2023-03-14T04:53:03;9.10;99.90
17740;DHT22;8990;33.226;-97.150;2023-03-14T04:55:33;9.10;99.90
17740;DHT22;8990;33.226;-97.150;2023-03-14T04:58:04;9.20;99.90
17740;DHT22;8990;33.226;-97.150;2023-03-14T05:00:34;9.20;99.90
17740;DHT22;8990;33.226;-97.150;2023-03-14T05:03:10;9.20;99.90
17740;DHT22;8990;33.226;-97.150;2023-03-14T05:05:57;9.10;99.90
17740;DHT22;8990;33.226;-97.150;2023-03-14T05:08:36;9.20;99.90
17740;DHT22;8990;33.226;-97.150;2023-03-14T05:11:24;9.10;99.90
17740;DHT22;8990;33.226;-97.150;2023-03-14T05:13:57;9.10;99.90
17740;DHT22;8990;33.226;-97.150;2023-03-14T05:16:52;9.10;99.90
17740;DHT22;8990;33.226;-97.150;2023-03-14T05:19:45;9.10;99.90
17740;DHT22;8990;33.226;-97.150;2023-03-14T05:22:35;9.10;99.90
17740;DHT22;8990;33.226;-97.150;2023-03-14T05:25:20;9.10;99.90
17740;DHT22;8990;33.226;-97.150;2023-03-14T05:27:49;9.10;99.90
17740;DHT22;8990;33.226;-97.150;2023-03-14T05:30:33;9.10;99.90
17740;DHT22;8990;33.226;-97.150;2023-03-14T05:33:25;9.00;99.90
17740;DHT22;8990;33.226;-97.150;2023-03-14T05:36:15;9.00;99.90
17740;DHT22;8990;33.226;-97.150;2023-03-14T05:39:05;9.00;99.90
17740;DHT22;8990;33.226;-97.150;2023-03-14T05:41:56;8.90;99.90
17740;DHT22;8990;33.226;-97.150;2023-03-14T05:44:57;9.00;99.90
17740;DHT22;8990;33.226;-97.150;2023-03-14T05:47:53;8.90;99.90
17740;DHT22;8990;33.226;-97.150;2023-03-14T05:50:55;8.90;99.90
17740;DHT22;8990;33.226;-97.150;2023-03-14T05:53:42;8.90;99.90
17740;DHT22;8990;33.226;-97.150;2023-03-14T05:56:34;8.80;99.90
17740;DHT22;8990;33.226;-97.150;2023-03-14T05:59:12;8.80;99.90
17740;DHT22;8990;33.226;-97.150;2023-03-14T06:01:51;8.80;99.90
17740;DHT22;8990;33.226;-97.150;2023-03-14T06:04:25;8.70;99.90
17740;DHT22;8990;33.226;-97.150;2023-03-14T06:06:58;8.70;99.90
17740;DHT22;8990;33.226;-97.150;2023-03-14T06:09:28;8.80;99.90
17740;DHT22;8990;33.226;-97.150;2023-03-14T06:12:00;8.70;99.90
17740;DHT22;8990;33.226;-97.150;2023-03-14T06:14:34;8.70;99.90
17740;DHT22;8990;33.226;-97.150;2023-03-14T06:17:03;8.70;99.90
17740;DHT22;8990;33.226;-97.150;2023-03-14T06:19:40;8.70;99.90
17740;DHT22;8990;33.226;-97.150;2023-03-14T06:22:13;8.60;99.90
17740;DHT22;8990;33.226;-97.150;2023-03-14T06:24:42;8.60;99.90
17740;DHT22;8990;33.226;-97.150;2023-03-14T06:27:12;8.60;99.90
17740;DHT22;8990;33.226;-97.150;2023-03-14T06:29:41;8.60;99.90
17740;DHT22;8990;33.226;-97.150;2023-03-14T06:32:10;8.60;99.90
17740;DHT22;8990;33.226;-97.150;2023-03-14T06:34:41;8.60;99.90
17740;DHT22;8990;33.226;-97.150;2023-03-14T06:37:10;8.50;99.90
17740;DHT22;8990;33.226;-97.150;2023-03-14T06:39:39;8.50;99.90
17740;DHT22;8990;33.226;-97.150;2023-03-14T06:42:16;8.50;99.90
17740;DHT22;8990;33.226;-97.150;2023-03-14T06:44:46;8.50;99.90
17740;DHT22;8990;33.226;-97.150;2023-03-14T06:47:16;8.40;99.90
17740;DHT22;8990;33.226;-97.150;2023-03-14T06:49:48;8.40;99.90
17740;DHT22;8990;33.226;-97.150;2023-03-14T06:52:17;8.30;99.90
17740;DHT22;8990;33.226;-97.150;2023-03-14T06:54:46;8.40;99.90
17740;DHT22;8990;33.226;-97.150;2023-03-14T06:57:16;8.30;99.90
17740;DHT22;8990;33.226;-97.150;2023-03-14T06:59:45;8.30;99.90
17740;DHT22;8990;33.226;-97.150;2023-03-14T07:02:14;8.30;99.90
17740;DHT22;8990;33.226;-97.150;2023-03-14T07:04:44;8.20;99.90
17740;DHT22;8990;33.226;-97.150;2023-03-14T07:07:15;8.20;99.90
17740;DHT22;8990;33.226;-97.150;2023-03-14T07:09:44;8.20;99.90
17740;DHT22;8990;33.226;-97.150;2023-03-14T07:12:13;8.30;99.90
17740;DHT22;8990;33.226;-97.150;2023-03-14T07:14:42;8.30;99.90
17740;DHT22;8990;33.226;-97.150;2023-03-14T07:17:11;8.30;99.90
17740;DHT22;8990;33.226;-97.150;2023-03-14T07:19:40;8.20;99.90
17740;DHT22;8990;33.226;-97.150;2023-03-14T07:22:09;8.10;99.90
17740;DHT22;8990;33.226;-97.150;2023-03-14T07:24:40;8.10;99.90
17740;DHT22;8990;33.226;-97.150;2023-03-14T07:27:09;8.10;99.90
17740;DHT22;8990;33.226;-97.150;2023-03-14T07:29:38;8.10;99.90
17740;DHT22;8990;33.226;-97.150;2023-03-14T07:32:07;8.00;99.90
17740;DHT22;8990;33.226;-97.150;2023-03-14T07:34:36;8.00;99.90
17740;DHT22;8990;33.226;-97.150;2023-03-14T07:37:05;8.10;99.90
17740;DHT22;8990;33.226;-97.150;2023-03-14T07:39:34;8.10;99.90
17740;DHT22;8990;33.226;-97.150;2023-03-14T07:42:18;8.00;99.90
17740;DHT22;8990;33.226;-97.150;2023-03-14T07:45:27;8.00;99.90
17740;DHT22;8990;33.226;-97.150;2023-03-14T07:47:58;8.00;99.90
17740;DHT22;8990;33.226;-97.150;2023-03-14T07:50:29;8.00;99.90
17740;DHT22;8990;33.226;-97.150;2023-03-14T07:52:57;8.00;99.90
17740;DHT22;8990;33.226;-97.150;2023-03-14T07:55:26;8.00;99.90
17740;DHT22;8990;33.226;-97.150;2023-03-14T07:57:57;7.90;99.90
17740;DHT22;8990;33.226;-97.150;2023-03-14T08:00:26;7.90;99.90
17740;DHT22;8990;33.226;-97.150;2023-03-14T08:02:56;7.90;99.90
17740;DHT22;8990;33.226;-97.150;2023-03-14T08:05:25;7.80;99.90
17740;DHT22;8990;33.226;-97.150;2023-03-14T08:07:54;7.80;99.90
17740;DHT22;8990;33.226;-97.150;2023-03-14T08:10:23;7.70;99.90
17740;DHT22;8990;33.226;-97.150;2023-03-14T08:12:54;7.70;99.90
17740;DHT22;8990;33.226;-97.150;2023-03-14T08:15:25;7.70;99.90
17740;DHT22;8990;33.226;-97.150;2023-03-14T08:17:55;7.70;99.90
17740;DHT22;8990;33.226;-97.150;2023-03-14T08:20:25;7.70;99.90
17740;DHT22;8990;33.226;-97.150;2023-03-14T08:22:56;7.70;99.90
17740;DHT22;8990;33.226;-97.150;2023-03-14T08:25:27;7.70;99.90
17740;DHT22;8990;33.226;-97.150;2023-03-14T08:27:56;7.70;99.90
17740;DHT22;8990;33.226;-97.150;2023-03-14T08:30:26;7.60;99.90
17740;DHT22;8990;33.226;-97.150;2023-03-14T08:32:57;7.70;99.90
17740;DHT22;8990;33.226;-97.150;2023-03-14T08:35:26;7.70;99.90
17740;DHT22;8990;33.226;-97.150;2023-03-14T08:37:55;7.60;99.90
17740;DHT22;8990;33.226;-97.150;2023-03-14T08:40:24;7.60;99.90
17740;DHT22;8990;33.226;-97.150;2023-03-14T08:42:54;7.60;99.90
17740;DHT22;8990;33.226;-97.150;2023-03-14T08:45:25;7.70;99.90
17740;DHT22;8990;33.226;-97.150;2023-03-14T08:47:54;7.60;99.90
17740;DHT22;8990;33.226;-97.150;2023-03-14T08:50:22;7.60;99.90
17740;DHT22;8990;33.226;-97.150;2023-03-14T08:52:51;7.60;99.90
17740;DHT22;8990;33.226;-97.150;2023-03-14T08:55:20;7.50;99.90
17740;DHT22;8990;33.226;-97.150;2023-03-14T08:57:49;7.60;99.90
17740;DHT22;8990;33.226;-97.150;2023-03-14T09:00:19;7.60;99.90
17740;DHT22;8990;33.226;-97.150;2023-03-14T09:02:50;7.50;99.90
17740;DHT22;8990;33.226;-97.150;2023-03-14T09:05:19;7.50;99.90
17740;DHT22;8990;33.226;-97.150;2023-03-14T09:07:47;7.50;99.90
17740;DHT22;8990;33.226;-97.150;2023-03-14T09:10:16;7.60;99.90
17740;DHT22;8990;33.226;-97.150;2023-03-14T09:12:45;7.50;99.90
17740;DHT22;8990;33.226;-97.150;2023-03-14T09:15:14;7.50;99.90
17740;DHT22;8990;33.226;-97.150;2023-03-14T09:17:44;7.60;99.90
17740;DHT22;8990;33.226;-97.150;2023-03-14T09:20:15;7.50;99.90
17740;DHT22;8990;33.226;-97.150;2023-03-14T09:22:44;7.50;99.90
17740;DHT22;8990;33.226;-97.150;2023-03-14T09:25:13;7.50;99.90
17740;DHT22;8990;33.226;-97.150;2023-03-14T09:27:42;7.50;99.90
17740;DHT22;8990;33.226;-97.150;2023-03-14T09:30:11;7.50;99.90
17740;DHT22;8990;33.226;-97.150;2023-03-14T09:32:40;7.40;99.90
17740;DHT22;8990;33.226;-97.150;2023-03-14T09:35:09;7.40;99.90
17740;DHT22;8990;33.226;-97.150;2023-03-14T09:37:40;7.30;99.90
17740;DHT22;8990;33.226;-97.150;2023-03-14T09:40:13;7.30;99.90
17740;DHT22;8990;33.226;-97.150;2023-03-14T09:42:42;7.30;99.90
17740;DHT22;8990;33.226;-97.150;2023-03-14T09:45:23;7.20;99.90
17740;DHT22;8990;33.226;-97.150;2023-03-14T09:47:54;7.20;99.90
17740;DHT22;8990;33.226;-97.150;2023-03-14T09:50:25;7.10;99.90
17740;DHT22;8990;33.226;-97.150;2023-03-14T09:53:01;7.20;99.90
17740;DHT22;8990;33.226;-97.150;2023-03-14T09:55:30;7.10;99.90
17740;DHT22;8990;33.226;-97.150;2023-03-14T09:58:02;7.10;99.90
17740;DHT22;8990;33.226;-97.150;2023-03-14T10:00:32;7.10;99.90
17740;DHT22;8990;33.226;-97.150;2023-03-14T10:03:19;7.10;99.90
17740;DHT22;8990;33.226;-97.150;2023-03-14T10:05:50;7.10;99.90
17740;DHT22;8990;33.226;-97.150;2023-03-14T10:08:20;7.00;99.90
17740;DHT22;8990;33.226;-97.150;2023-03-14T10:10:49;7.00;99.90
17740;DHT22;8990;33.226;-97.150;2023-03-14T10:13:20;7.00;99.90
17740;DHT22;8990;33.226;-97.150;2023-03-14T10:15:53;7.00;99.90
17740;DHT22;8990;33.226;-97.150;2023-03-14T10:18:23;7.00;99.90
17740;DHT22;8990;33.226;-97.150;2023-03-14T10:21:03;7.00;99.90
17740;DHT22;8990;33.226;-97.150;2023-03-14T10:23:35;6.90;99.90
17740;DHT22;8990;33.226;-97.150;2023-03-14T10:26:08;6.80;99.90
17740;DHT22;8990;33.226;-97.150;2023-03-14T10:28:39;6.80;99.90
17740;DHT22;8990;33.226;-97.150;2023-03-14T10:31:10;6.80;99.90
17740;DHT22;8990;33.226;-97.150;2023-03-14T10:33:39;6.80;99.90
17740;DHT22;8990;33.226;-97.150;2023-03-14T10:36:17;6.80;99.90
17740;DHT22;8990;33.226;-97.150;2023-03-14T10:38:49;6.80;99.90
17740;DHT22;8990;33.226;-97.150;2023-03-14T10:41:23;6.80;99.90
17740;DHT22;8990;33.226;-97.150;2023-03-14T10:43:54;6.70;99.90
17740;DHT22;8990;33.226;-97.150;2023-03-14T10:46:26;6.70;99.90
17740;DHT22;8990;33.226;-97.150;2023-03-14T10:49:26;6.60;99.90
17740;DHT22;8990;33.226;-97.150;2023-03-14T10:51:55;6.60;99.90
17740;DHT22;8990;33.226;-97.150;2023-03-14T10:54:31;6.70;99.90
17740;DHT22;8990;33.226;-97.150;2023-03-14T10:57:01;6.60;99.90
17740;DHT22;8990;33.226;-97.150;2023-03-14T10:59:35;6.60;99.90
17740;DHT22;8990;33.226;-97.150;2023-03-14T11:02:15;6.60;99.90
17740;DHT22;8990;33.226;-97.150;2023-03-14T11:04:59;6.60;99.90
17740;DHT22;8990;33.226;-97.150;2023-03-14T11:07:36;6.60;99.90
17740;DHT22;8990;33.226;-97.150;2023-03-14T11:10:15;6.60;99.90
17740;DHT22;8990;33.226;-97.150;2023-03-14T11:12:56;6.60;99.90
17740;DHT22;8990;33.226;-97.150;2023-03-14T11:15:33;6.60;99.90
17740;DHT22;8990;33.226;-97.150;2023-03-14T11:18:30;6.60;99.90
17740;DHT22;8990;33.226;-97.150;2023-03-14T11:21:11;6.50;99.90
17740;DHT22;8990;33.226;-97.150;2023-03-14T11:23:50;6.50;99.90
17740;DHT22;8990;33.226;-97.150;2023-03-14T11:26:33;6.50;99.90
17740;DHT22;8990;33.226;-97.150;2023-03-14T11:29:17;6.50;99.90
17740;DHT22;8990;33.226;-97.150;2023-03-14T11:31:48;6.40;99.90
17740;DHT22;8990;33.226;-97.150;2023-03-14T11:34:20;6.50;99.90
17740;DHT22;8990;33.226;-97.150;2023-03-14T11:36:53;6.40;99.90
17740;DHT22;8990;33.226;-97.150;2023-03-14T11:39:24;6.40;99.90
17740;DHT22;8990;33.226;-97.150;2023-03-14T11:41:58;6.40;99.90
17740;DHT22;8990;33.226;-97.150;2023-03-14T11:44:32;6.40;99.90
17740;DHT22;8990;33.226;-97.150;2023-03-14T11:47:07;6.30;99.90
17740;DHT22;8990;33.226;-97.150;2023-03-14T11:49:42;6.30;99.90
17740;DHT22;8990;33.226;-97.150;2023-03-14T11:52:16;6.20;99.90
17740;DHT22;8990;33.226;-97.150;2023-03-14T11:54:52;6.20;99.90
17740;DHT22;8990;33.226;-97.150;2023-03-14T11:57:23;6.20;99.90
17740;DHT22;8990;33.226;-97.150;2023-03-14T11:59:57;6.20;99.90
17740;DHT22;8990;33.226;-97.150;2023-03-14T12:02:35;6.20;99.90
17740;DHT22;8990;33.226;-97.150;2023-03-14T12:05:27;6.20;99.90
17740;DHT22;8990;33.226;-97.150;2023-03-14T12:08:21;6.20;99.90
17740;DHT22;8990;33.226;-97.150;2023-03-14T12:10:53;6.20;99.90
17740;DHT22;8990;33.226;-97.150;2023-03-14T12:13:29;6.20;99.90
17740;DHT22;8990;33.226;-97.150;2023-03-14T12:15:59;6.20;99.90
17740;DHT22;8990;33.226;-97.150;2023-03-14T12:18:30;6.20;99.90
17740;DHT22;8990;33.226;-97.150;2023-03-14T12:21:01;6.10;99.90
17740;DHT22;8990;33.226;-97.150;2023-03-14T12:23:37;6.10;99.90
17740;DHT22;8990;33.226;-97.150;2023-03-14T12:26:17;6.10;99.90
17740;DHT22;8990;33.226;-97.150;2023-03-14T12:28:52;6.10;99.90
17740;DHT22;8990;33.226;-97.150;2023-03-14T12:31:41;6.10;99.90
17740;DHT22;8990;33.226;-97.150;2023-03-14T12:34:28;6.10;99.90
17740;DHT22;8990;33.226;-97.150;2023-03-14T12:37:14;6.10;99.90
17740;DHT22;8990;33.226;-97.150;2023-03-14T12:39:58;6.10;99.90
17740;DHT22;8990;33.226;-97.150;2023-03-14T12:42:45;6.10;99.90
17740;DHT22;8990;33.226;-97.150;2023-03-14T12:45:23;6.00;99.90
17740;DHT22;8990;33.226;-97.150;2023-03-14T12:48:01;6.10;99.90
17740;DHT22;8990;33.226;-97.150;2023-03-14T12:50:35;6.10;99.90
17740;DHT22;8990;33.226;-97.150;2023-03-14T12:56:21;6.20;99.90
17740;DHT22;8990;33.226;-97.150;2023-03-14T13:01:56;6.20;99.90
17740;DHT22;8990;33.226;-97.150;2023-03-14T13:04:31;6.20;99.90
17740;DHT22;8990;33.226;-97.150;2023-03-14T13:07:02;6.30;99.90
17740;DHT22;8990;33.226;-97.150;2023-03-14T13:10:09;6.30;99.90
17740;DHT22;8990;33.226;-97.150;2023-03-14T13:12:50;6.40;99.90
17740;DHT22;8990;33.226;-97.150;2023-03-14T13:15:24;6.50;99.90
17740;DHT22;8990;33.226;-97.150;2023-03-14T13:18:01;6.50;99.90
17740;DHT22;8990;33.226;-97.150;2023-03-14T13:20:34;6.60;99.90
17740;DHT22;8990;33.226;-97.150;2023-03-14T13:23:03;6.60;99.90
17740;DHT22;8990;33.226;-97.150;2023-03-14T13:25:36;6.70;99.90
17740;DHT22;8990;33.226;-97.150;2023-03-14T13:28:05;6.70;99.90
17740;DHT22;8990;33.226;-97.150;2023-03-14T13:30:40;6.80;99.90
17740;DHT22;8990;33.226;-97.150;2023-03-14T13:33:15;6.90;99.90
17740;DHT22;8990;33.226;-97.150;2023-03-14T13:35:46;7.00;99.90
17740;DHT22;8990;33.226;-97.150;2023-03-14T13:38:21;7.10;99.90
17740;DHT22;8990;33.226;-97.150;2023-03-14T13:40:51;7.20;99.90
17740;DHT22;8990;33.226;-97.150;2023-03-14T13:43:25;7.20;99.90
17740;DHT22;8990;33.226;-97.150;2023-03-14T13:46:00;7.30;99.90
17740;DHT22;8990;33.226;-97.150;2023-03-14T13:48:33;7.30;99.90
17740;DHT22;8990;33.226;-97.150;2023-03-14T13:51:05;7.40;99.90
17740;DHT22;8990;33.226;-97.150;2023-03-14T13:53:43;7.50;99.90
17740;DHT22;8990;33.226;-97.150;2023-03-14T13:56:13;7.50;99.90
17740;DHT22;8990;33.226;-97.150;2023-03-14T13:58:42;7.50;99.90
17740;DHT22;8990;33.226;-97.150;2023-03-14T14:01:14;7.50;99.90
17740;DHT22;8990;33.226;-97.150;2023-03-14T14:03:48;7.60;99.90
17740;DHT22;8990;33.226;-97.150;2023-03-14T14:06:27;7.70;99.90
17740;DHT22;8990;33.226;-97.150;2023-03-14T14:08:58;7.80;99.90
17740;DHT22;8990;33.226;-97.150;2023-03-14T14:11:37;7.80;99.90
17740;DHT22;8990;33.226;-97.150;2023-03-14T14:14:10;7.90;99.90
17740;DHT22;8990;33.226;-97.150;2023-03-14T14:16:41;8.00;99.90
17740;DHT22;8990;33.226;-97.150;2023-03-14T14:19:12;8.00;99.90
17740;DHT22;8990;33.226;-97.150;2023-03-14T14:21:42;8.20;99.90
17740;DHT22;8990;33.226;-97.150;2023-03-14T14:24:13;8.30;99.90
17740;DHT22;8990;33.226;-97.150;2023-03-14T14:26:47;8.40;99.90
17740;DHT22;8990;33.226;-97.150;2023-03-14T14:29:26;8.40;99.90
17740;DHT22;8990;33.226;-97.150;2023-03-14T14:32:08;8.40;99.90
17740;DHT22;8990;33.226;-97.150;2023-03-14T14:34:43;8.50;99.90
17740;DHT22;8990;33.226;-97.150;2023-03-14T14:37:21;8.60;99.90
17740;DHT22;8990;33.226;-97.150;2023-03-14T14:39:51;8.60;99.90
17740;DHT22;8990;33.226;-97.150;2023-03-14T14:42:21;8.90;99.90
17740;DHT22;8990;33.226;-97.150;2023-03-14T14:44:53;9.00;99.90
17740;DHT22;8990;33.226;-97.150;2023-03-14T14:47:24;9.00;99.90
17740;DHT22;8990;33.226;-97.150;2023-03-14T14:49:59;9.00;99.90
17740;DHT22;8990;33.226;-97.150;2023-03-14T14:52:36;9.00;99.90
17740;DHT22;8990;33.226;-97.150;2023-03-14T14:55:17;9.10;99.90
17740;DHT22;8990;33.226;-97.150;2023-03-14T14:57:53;9.10;99.90
17740;DHT22;8990;33.226;-97.150;2023-03-14T15:00:24;9.30;99.90
17740;DHT22;8990;33.226;-97.150;2023-03-14T15:02:55;9.40;99.90
17740;DHT22;8990;33.226;-97.150;2023-03-14T15:05:29;9.50;99.90
17740;DHT22;8990;33.226;-97.150;2023-03-14T15:08:02;9.60;99.90
17740;DHT22;8990;33.226;-97.150;2023-03-14T15:10:31;9.70;99.90
17740;DHT22;8990;33.226;-97.150;2023-03-14T15:13:02;9.90;99.90
17740;DHT22;8990;33.226;-97.150;2023-03-14T15:15:33;9.90;99.90
17740;DHT22;8990;33.226;-97.150;2023-03-14T15:18:02;9.80;99.90
17740;DHT22;8990;33.226;-97.150;2023-03-14T15:20:32;9.90;99.90
17740;DHT22;8990;33.226;-97.150;2023-03-14T15:23:01;9.90;99.90
17740;DHT22;8990;33.226;-97.150;2023-03-14T15:25:30;10.10;99.90
17740;DHT22;8990;33.226;-97.150;2023-03-14T15:27:59;10.20;99.90
17740;DHT22;8990;33.226;-97.150;2023-03-14T15:30:28;10.30;99.90
17740;DHT22;8990;33.226;-97.150;2023-03-14T15:32:57;10.40;99.90
17740;DHT22;8990;33.226;-97.150;2023-03-14T15:35:26;10.60;99.90
17740;DHT22;8990;33.226;-97.150;2023-03-14T15:37:56;10.70;99.90
17740;DHT22;8990;33.226;-97.150;2023-03-14T15:40:25;10.80;99.90
17740;DHT22;8990;33.226;-97.150;2023-03-14T15:42:54;11.10;99.90
17740;DHT22;8990;33.226;-97.150;2023-03-14T15:45:23;11.10;99.90
17740;DHT22;8990;33.226;-97.150;2023-03-14T15:47:52;11.20;99.90
17740;DHT22;8990;33.226;-97.150;2023-03-14T15:50:21;11.20;99.90
17740;DHT22;8990;33.226;-97.150;2023-03-14T15:52:50;11.40;99.90
17740;DHT22;8990;33.226;-97.150;2023-03-14T15:55:21;11.40;99.90
17740;DHT22;8990;33.226;-97.150;2023-03-14T15:57:50;11.40;99.90
17740;DHT22;8990;33.226;-97.150;2023-03-14T16:00:20;11.60;99.90
17740;DHT22;8990;33.226;-97.150;2023-03-14T16:02:51;11.70;99.90
17740;DHT22;8990;33.226;-97.150;2023-03-14T16:05:20;11.80;99.90
17740;DHT22;8990;33.226;-97.150;2023-03-14T16:07:49;11.90;99.90
17740;DHT22;8990;33.226;-97.150;2023-03-14T16:10:18;12.00;99.90
17740;DHT22;8990;33.226;-97.150;2023-03-14T16:12:48;12.00;99.90
17740;DHT22;8990;33.226;-97.150;2023-03-14T16:15:18;12.00;99.90